Time;durP1;ratioP1;P1;durP2;ratioP2;P2;SDS_P1;SDS_P2;PMS_P1;PMS_P2;Temp;Humidity;BMP_temperature;BMP_pressure;BME280_temperature;BME280_humidity;BME280_pressure;Samples;Min_cycle;Max_cycle;Signal;HPM_P1;HPM_P2
2022/02/09 00:02:06;;;;;;;27.48;18.38;;;9.40;99.90;;;;;;5078426;28;20286;-73
2022/02/09 00:04:40;;;;;;;20.23;16.63;;;9.40;99.90;;;;;;5090247;28;20304;-75
2022/02/09 00:07:11;;;;;;;25.73;17.95;;;9.50;99.90;;;;;;5083280;28;20289;-76
2022/02/09 00:09:40;;;;;;;22.33;19.20;;;9.40;99.90;;;;;;5085757;28;20206;-74
2022/02/09 00:12:15;;;;;;;22.95;18.27;;;9.40;99.90;;;;;;5090258;28;20237;-75
2022/02/09 00:14:53;;;;;;;23.67;18.60;;;9.40;99.90;;;;;;5090321;28;20190;-73
2022/02/09 00:17:35;;;;;;;24.95;17.77;;;9.40;99.90;;;;;;5098684;28;20197;-73
2022/02/09 00:20:28;;;;;;;24.80;18.95;;;9.40;99.90;;;;;;5097573;28;20262;-74
2022/02/09 00:29:15;;;;;;;25.77;19.38;;;9.30;99.90;;;;;;5045468;28;20199;-74
2022/02/09 00:37:40;;;;;;;26.85;19.10;;;9.30;99.90;;;;;;5073472;28;20233;-75
2022/02/09 00:40:47;;;;;;;25.55;18.05;;;9.40;99.90;;;;;;5063903;28;20201;-76
2022/02/09 01:39:42;;;;;;;18.42;12.95;;;9.50;99.90;;;;;;5069735;28;20190;-74
2022/02/09 01:55:53;;;;;;;19.45;13.85;;;9.50;99.90;;;;;;5072978;28;20610;-75
2022/02/09 01:58:25;;;;;;;19.45;12.73;;;9.50;99.90;;;;;;5074331;28;20269;-73
2022/02/09 02:00:52;;;;;;;24.23;13.30;;;9.50;99.90;;;;;;5084398;28;20237;-72
2022/02/09 02:03:19;;;;;;;25.52;14.88;;;9.50;99.90;;;;;;5086491;28;20254;-71
2022/02/09 02:05:46;;;;;;;26.30;15.52;;;9.50;99.90;;;;;;5091300;28;20253;-76
2022/02/09 02:08:29;;;;;;;28.48;15.93;;;9.50;99.90;;;;;;5097710;28;20225;-74
2022/02/09 02:11:04;;;;;;;22.92;15.05;;;9.50;99.90;;;;;;5085220;28;20692;-75
2022/02/09 02:13:52;;;;;;;22.17;15.30;;;9.40;99.90;;;;;;5075209;28;20219;-73
2022/02/09 02:16:31;;;;;;;28.40;15.32;;;9.40;99.90;;;;;;5084694;28;20199;-74
2022/02/09 02:19:09;;;;;;;28.50;15.73;;;9.40;99.90;;;;;;5086020;28;20225;-74
2022/02/09 02:21:52;;;;;;;25.90;15.95;;;9.40;99.90;;;;;;5086680;28;20264;-76
2022/02/09 02:25:00;;;;;;;29.63;16.13;;;9.40;99.90;;;;;;5090681;28;20588;-72
2022/02/09 02:27:42;;;;;;;30.13;17.08;;;9.30;99.90;;;;;;5083288;28;20209;-75
2022/02/09 02:30:47;;;;;;;29.25;14.93;;;9.30;99.90;;;;;;5077178;28;20289;-73
2022/02/09 02:33:28;;;;;;;23.23;15.02;;;9.30;99.90;;;;;;5076524;28;20226;-72
2022/02/09 02:36:20;;;;;;;20.58;13.52;;;9.40;99.90;;;;;;5085480;28;20205;-74
2022/02/09 02:39:11;;;;;;;31.55;15.27;;;9.40;99.90;;;;;;5088616;28;20207;-73
2022/02/09 02:42:37;;;;;;;28.70;15.27;;;9.40;99.90;;;;;;5090925;28;20225;-74
2022/02/09 02:47:44;;;;;;;21.42;13.95;;;9.20;99.90;;;;;;5080920;28;20663;-73
2022/02/09 03:10:12;;;;;;;31.25;15.18;;;9.30;99.90;;;;;;5081371;28;20710;-74
2022/02/09 03:12:44;;;;;;;31.80;15.27;;;9.20;99.90;;;;;;5080195;28;20329;-73
2022/02/09 03:15:32;;;;;;;23.80;15.60;;;9.20;99.90;;;;;;5075427;28;20235;-74
2022/02/09 03:18:19;;;;;;;26.17;15.73;;;9.30;99.90;;;;;;5057349;28;20268;-74
2022/02/09 03:20:51;;;;;;;22.92;14.18;;;9.30;99.90;;;;;;5056598;28;20211;-74
2022/02/09 03:23:40;;;;;;;25.45;15.95;;;9.20;99.90;;;;;;5057981;28;20652;-73
2022/02/09 03:26:29;;;;;;;23.65;15.00;;;9.20;99.90;;;;;;5057217;28;20705;-73
2022/02/09 03:42:56;;;;;;;21.83;14.68;;;9.20;99.90;;;;;;5076189;28;20253;-75
2022/02/09 03:48:26;;;;;;;23.13;14.18;;;9.30;99.90;;;;;;5078813;28;20257;-73
2022/02/09 03:56:31;;;;;;;20.92;13.52;;;9.30;99.90;;;;;;5067414;28;20387;-75
2022/02/09 03:58:58;;;;;;;24.05;14.30;;;9.30;99.90;;;;;;5074839;28;20198;-74
2022/02/09 04:01:31;;;;;;;23.02;15.25;;;9.30;99.90;;;;;;5082256;28;20567;-76
2022/02/09 04:03:58;;;;;;;20.77;15.30;;;9.40;99.90;;;;;;5078664;28;20216;-75
2022/02/09 04:06:25;;;;;;;19.90;16.50;;;9.40;99.90;;;;;;5091350;28;20245;-76
2022/02/09 04:08:56;;;;;;;20.33;13.93;;;9.40;99.90;;;;;;5087307;28;20565;-76
2022/02/09 04:11:28;;;;;;;25.45;14.13;;;9.40;99.90;;;;;;5087412;28;20293;-72
2022/02/09 04:14:04;;;;;;;24.00;15.70;;;9.40;99.90;;;;;;5078378;28;20202;-75
2022/02/09 04:16:43;;;;;;;21.77;14.63;;;9.40;99.90;;;;;;5085893;28;20233;-74
2022/02/09 04:19:21;;;;;;;23.58;15.02;;;9.40;99.90;;;;;;5095861;28;20206;-75
2022/02/09 04:38:30;;;;;;;22.73;13.90;;;9.40;99.90;;;;;;5089649;28;20584;-75
2022/02/09 04:41:26;;;;;;;23.88;15.30;;;9.40;99.90;;;;;;5071007;28;20207;-74
2022/02/09 04:44:07;;;;;;;22.70;12.88;;;9.40;99.90;;;;;;5083652;28;20244;-74
2022/02/09 04:49:42;;;;;;;18.88;12.38;;;9.40;99.90;;;;;;5087282;28;20198;-74
2022/02/09 04:55:05;;;;;;;21.48;14.15;;;9.50;99.90;;;;;;5058565;28;20194;-74
2022/02/09 04:57:38;;;;;;;23.38;16.08;;;9.50;99.90;;;;;;5079262;28;20209;-74
2022/02/09 05:00:28;;;;;;;24.33;14.30;;;9.50;99.90;;;;;;5086141;28;20255;-73
2022/02/09 05:22:37;;;;;;;21.58;14.20;;;9.40;99.90;;;;;;5077587;28;20226;-75
2022/02/09 05:25:38;;;;;;;19.65;13.32;;;9.30;99.90;;;;;;5074998;28;20233;-74
2022/02/09 05:28:07;;;;;;;26.80;14.75;;;9.30;99.90;;;;;;5052871;28;20200;-75
2022/02/09 05:30:35;;;;;;;18.80;12.80;;;9.30;99.90;;;;;;5056020;28;20246;-74
2022/02/09 05:33:02;;;;;;;18.00;13.13;;;9.30;99.90;;;;;;5091025;28;20322;-72
2022/02/09 05:35:29;;;;;;;17.60;12.05;;;9.30;99.90;;;;;;5085018;28;20262;-73
2022/02/09 05:37:58;;;;;;;21.95;13.27;;;9.30;99.90;;;;;;5082965;28;20208;-75
2022/02/09 05:40:27;;;;;;;22.10;14.50;;;9.30;99.90;;;;;;5089544;28;20200;-76
2022/02/09 05:42:54;;;;;;;19.75;13.95;;;9.30;99.90;;;;;;5076725;28;20219;-75
2022/02/09 05:45:24;;;;;;;23.75;14.45;;;9.20;99.90;;;;;;5077494;28;20289;-77
2022/02/09 05:50:48;;;;;;;19.95;15.13;;;9.20;99.90;;;;;;5078959;28;20194;-76
2022/02/09 05:53:20;;;;;;;22.65;14.35;;;9.20;99.90;;;;;;5095745;28;20226;-74
2022/02/09 05:55:50;;;;;;;20.20;13.32;;;9.20;99.90;;;;;;5097200;28;20218;-73
2022/02/09 06:01:05;;;;;;;21.52;14.43;;;9.30;99.90;;;;;;5095461;28;20187;-73
2022/02/09 06:03:33;;;;;;;20.85;14.20;;;9.20;99.90;;;;;;5078072;28;20307;-73
2022/02/09 06:06:00;;;;;;;18.60;13.23;;;9.30;99.90;;;;;;5096321;28;20711;-73
2022/02/09 06:08:29;;;;;;;23.05;14.18;;;9.20;99.90;;;;;;5085255;28;20665;-73
2022/02/09 06:11:10;;;;;;;16.15;12.38;;;9.30;99.90;;;;;;5082001;28;20202;-74
2022/02/09 06:19:48;;;;;;;17.08;12.52;;;9.30;99.90;;;;;;5039265;28;20196;-76
2022/02/09 06:22:15;;;;;;;20.42;12.32;;;9.40;99.90;;;;;;5033376;28;20244;-73
2022/02/09 06:24:43;;;;;;;16.83;12.88;;;9.30;99.90;;;;;;5067339;28;20233;-72
2022/02/09 06:27:11;;;;;;;13.30;10.45;;;9.30;99.90;;;;;;5081563;28;20291;-74
2022/02/09 06:29:44;;;;;;;15.80;11.40;;;9.30;99.90;;;;;;5067237;28;20298;-72
2022/02/09 06:32:11;;;;;;;12.57;9.80;;;9.30;99.90;;;;;;5075401;28;20228;-73
2022/02/09 06:34:38;;;;;;;12.80;9.73;;;9.40;99.90;;;;;;5076954;28;20239;-74
2022/02/09 06:37:14;;;;;;;13.07;10.88;;;9.30;99.90;;;;;;5089386;28;20290;-72
2022/02/09 06:39:45;;;;;;;12.02;9.60;;;9.30;99.90;;;;;;5079804;28;20207;-74
2022/02/09 06:42:15;;;;;;;13.73;10.40;;;9.30;99.90;;;;;;5088227;28;20250;-74
2022/02/09 06:44:42;;;;;;;11.13;9.73;;;9.40;99.90;;;;;;5083008;28;20309;-73
2022/02/09 06:47:09;;;;;;;13.68;10.52;;;9.40;99.90;;;;;;5085754;28;20290;-73
2022/02/09 06:49:37;;;;;;;12.75;9.77;;;9.40;99.90;;;;;;5081007;28;20235;-75
2022/02/09 06:52:05;;;;;;;12.10;10.02;;;9.40;99.90;;;;;;5089101;28;20755;-73
2022/02/09 06:54:43;;;;;;;11.60;9.93;;;9.40;99.90;;;;;;5092338;28;20199;-75
2022/02/09 06:57:25;;;;;;;15.32;10.05;;;9.40;99.90;;;;;;5081434;28;20610;-73
2022/02/09 06:59:52;;;;;;;14.20;10.38;;;9.40;99.90;;;;;;5090573;28;20215;-76
2022/02/09 07:02:19;;;;;;;12.90;9.32;;;9.40;99.90;;;;;;5089634;28;20234;-74
2022/02/09 07:04:52;;;;;;;12.88;10.15;;;9.40;99.90;;;;;;5090948;28;20226;-75
2022/02/09 07:07:19;;;;;;;17.33;10.75;;;9.40;99.90;;;;;;5109750;28;20220;-79
2022/02/09 07:09:50;;;;;;;15.43;10.98;;;9.40;99.90;;;;;;5116526;28;20208;-80
2022/02/09 07:12:18;;;;;;;10.85;8.32;;;9.50;99.90;;;;;;5115735;28;20258;-78
2022/02/09 07:14:48;;;;;;;11.30;8.88;;;9.50;99.90;;;;;;5091328;28;20235;-81
2022/02/09 07:17:15;;;;;;;11.23;8.75;;;9.50;99.90;;;;;;5085062;28;20203;-86
2022/02/09 07:19:44;;;;;;;9.38;7.88;;;9.50;99.90;;;;;;5097028;28;20203;-79
2022/02/09 07:22:23;;;;;;;15.45;9.55;;;9.50;99.90;;;;;;5099589;28;20229;-78
2022/02/09 07:25:07;;;;;;;10.98;9.50;;;9.50;99.90;;;;;;5099210;28;20278;-78
2022/02/09 07:27:47;;;;;;;10.85;8.32;;;9.50;99.90;;;;;;5099378;28;20172;-81
2022/02/09 07:30:14;;;;;;;12.52;9.80;;;9.60;99.90;;;;;;5093885;28;20207;-79
2022/02/09 07:32:41;;;;;;;12.40;9.45;;;9.60;99.90;;;;;;5087912;28;20227;-83
2022/02/09 07:35:09;;;;;;;11.63;8.65;;;9.50;99.90;;;;;;5087481;28;20706;-81
2022/02/09 07:37:36;;;;;;;11.02;8.60;;;9.50;99.90;;;;;;5089906;28;20250;-80
2022/02/09 07:40:09;;;;;;;11.90;9.02;;;9.60;99.90;;;;;;5077723;28;20217;-83
2022/02/09 07:42:43;;;;;;;14.13;9.27;;;9.60;99.90;;;;;;5087597;28;20253;-78
2022/02/09 07:45:38;;;;;;;14.50;10.18;;;9.60;99.90;;;;;;5076876;28;20601;-76
2022/02/09 07:48:25;;;;;;;12.57;10.60;;;9.60;99.90;;;;;;5074787;28;20202;-78
2022/02/09 07:51:16;;;;;;;12.15;9.20;;;9.60;99.90;;;;;;5084999;28;20221;-75
2022/02/09 07:53:51;;;;;;;10.52;8.98;;;9.60;99.90;;;;;;5094694;28;20204;-79
2022/02/09 07:56:18;;;;;;;16.80;10.18;;;9.60;99.90;;;;;;5094034;28;20201;-80
2022/02/09 07:58:47;;;;;;;11.05;9.10;;;9.70;99.90;;;;;;5092146;28;20211;-77
2022/02/09 08:01:31;;;;;;;19.95;11.55;;;9.70;99.90;;;;;;5091045;28;20187;-78
2022/02/09 08:04:06;;;;;;;16.00;10.98;;;9.70;99.90;;;;;;5061822;28;20289;-71
2022/02/09 08:06:34;;;;;;;15.57;10.75;;;9.70;99.90;;;;;;5074334;28;20242;-72
2022/02/09 08:09:08;;;;;;;15.23;12.02;;;9.80;99.90;;;;;;5080034;28;20625;-73
2022/02/09 08:11:41;;;;;;;15.90;10.40;;;9.90;99.90;;;;;;5081327;28;20231;-73
2022/02/09 08:31:33;;;;;;;10.52;9.43;;;10.20;99.90;;;;;;5066384;28;20560;-73
2022/02/09 08:34:00;;;;;;;11.98;9.70;;;10.10;99.90;;;;;;5083980;28;20203;-72
2022/02/09 08:36:27;;;;;;;13.35;11.20;;;10.20;99.90;;;;;;5071951;28;20260;-72
2022/02/09 08:38:54;;;;;;;12.23;10.20;;;10.20;99.90;;;;;;5069064;28;20201;-73
2022/02/09 08:41:21;;;;;;;14.27;10.30;;;10.20;99.90;;;;;;5080200;28;20660;-71
2022/02/09 08:43:48;;;;;;;17.98;11.55;;;10.30;99.90;;;;;;5086194;28;20233;-72
2022/02/09 08:46:16;;;;;;;16.92;10.88;;;10.50;99.90;;;;;;5080337;28;20673;-74
2022/02/09 08:48:47;;;;;;;12.25;9.48;;;10.40;99.90;;;;;;5085214;28;20207;-73
2022/02/09 08:51:14;;;;;;;11.10;9.95;;;10.40;99.90;;;;;;5067082;28;20204;-74
2022/02/09 08:53:41;;;;;;;10.95;9.00;;;10.50;99.90;;;;;;5067660;28;20205;-73
2022/02/09 08:56:08;;;;;;;10.20;8.95;;;10.70;99.90;;;;;;5072791;28;20201;-74
2022/02/09 08:58:35;;;;;;;12.93;9.48;;;10.90;99.90;;;;;;5072652;28;20209;-74
2022/02/09 09:01:09;;;;;;;9.95;9.00;;;11.20;99.90;;;;;;5076462;28;20292;-73
2022/02/09 09:03:47;;;;;;;12.95;7.97;;;12.00;99.90;;;;;;5085118;28;20240;-73
2022/02/09 09:06:18;;;;;;;10.65;8.02;;;12.70;99.90;;;;;;5077924;28;20300;-72
2022/02/09 09:08:58;;;;;;;10.43;8.15;;;13.50;99.90;;;;;;5082417;28;20204;-74
2022/02/09 09:12:01;;;;;;;10.77;6.63;;;14.10;99.90;;;;;;5086240;28;20223;-74
2022/02/09 09:17:40;;;;;;;8.77;6.07;;;15.00;99.90;;;;;;5052466;28;20440;-73
2022/02/09 10:01:52;;;;;;;8.30;6.10;;;11.50;99.90;;;;;;5030359;28;20251;-75
2022/02/09 10:35:18;;;;;;;7.40;6.60;;;11.30;99.90;;;;;;5084236;28;20195;-72
2022/02/09 10:37:45;;;;;;;7.30;6.50;;;11.30;99.90;;;;;;5090373;28;20208;-73
2022/02/09 10:40:34;;;;;;;8.90;6.65;;;11.40;99.90;;;;;;5090063;28;20216;-74
2022/02/09 10:43:04;;;;;;;10.68;7.00;;;11.40;99.90;;;;;;5085331;28;20541;-74
2022/02/09 10:45:35;;;;;;;10.57;6.90;;;11.50;99.90;;;;;;5089001;28;20222;-74
2022/02/09 10:48:05;;;;;;;7.47;6.38;;;11.60;99.90;;;;;;5090285;28;20201;-74
2022/02/09 10:50:38;;;;;;;8.75;6.75;;;11.60;99.90;;;;;;5090088;28;20204;-76
2022/02/09 10:53:06;;;;;;;8.18;7.38;;;11.60;99.90;;;;;;5088208;28;20232;-75
2022/02/09 10:55:38;;;;;;;9.43;6.70;;;11.60;99.90;;;;;;5089939;28;20196;-74
2022/02/09 10:58:10;;;;;;;7.68;6.72;;;11.50;99.90;;;;;;5095683;28;20280;-74
2022/02/09 11:00:43;;;;;;;7.18;6.47;;;11.40;99.90;;;;;;5096923;28;20311;-73
2022/02/09 11:03:10;;;;;;;10.77;6.95;;;11.30;99.90;;;;;;5092375;28;20228;-74
2022/02/09 11:05:37;;;;;;;9.77;7.57;;;11.30;99.90;;;;;;5093448;28;20244;-73
2022/02/09 11:08:05;;;;;;;8.40;5.50;;;11.20;99.90;;;;;;5091206;28;20227;-75
2022/02/09 11:10:32;;;;;;;9.95;7.35;;;11.20;99.90;;;;;;5091552;28;20204;-74
2022/02/09 11:13:00;;;;;;;7.72;7.00;;;11.30;99.90;;;;;;5086007;28;20292;-73
2022/02/09 11:15:28;;;;;;;8.23;7.43;;;11.30;99.90;;;;;;5083876;28;20197;-75
2022/02/09 11:17:56;;;;;;;9.27;8.20;;;11.30;99.90;;;;;;5088223;28;20310;-74
2022/02/09 11:20:28;;;;;;;8.40;7.20;;;11.40;99.90;;;;;;5087985;28;20190;-74
2022/02/09 11:22:55;;;;;;;11.25;7.70;;;11.60;99.90;;;;;;5086885;28;20232;-75
2022/02/09 11:25:28;;;;;;;11.48;8.15;;;11.70;99.90;;;;;;5081077;28;20205;-74
2022/02/09 11:28:21;;;;;;;7.63;6.65;;;11.90;99.90;;;;;;5082096;28;20202;-74
2022/02/09 11:31:06;;;;;;;8.90;6.65;;;11.80;99.90;;;;;;5087232;28;20294;-73
2022/02/09 11:34:04;;;;;;;8.65;7.05;;;11.70;99.90;;;;;;5090833;28;20564;-74
2022/02/09 11:36:37;;;;;;;9.57;8.32;;;11.70;99.90;;;;;;5089133;28;20206;-75
2022/02/09 11:39:12;;;;;;;7.75;6.72;;;11.60;99.90;;;;;;5083963;28;20202;-73
2022/02/09 11:41:52;;;;;;;8.43;7.20;;;11.40;99.90;;;;;;5088091;28;20258;-76
2022/02/09 11:44:50;;;;;;;8.45;7.15;;;11.40;99.90;;;;;;5077607;28;20208;-74
2022/02/09 11:47:44;;;;;;;8.43;7.63;;;11.40;99.90;;;;;;5083233;28;20680;-74
2022/02/09 11:58:54;;;;;;;8.48;6.88;;;11.20;99.90;;;;;;5083600;28;20282;-76
2022/02/09 12:01:49;;;;;;;8.07;6.80;;;11.20;99.90;;;;;;5086347;28;20199;-74
2022/02/09 12:10:20;;;;;;;6.75;6.10;;;11.40;99.90;;;;;;5081660;28;20197;-73
2022/02/09 12:12:53;;;;;;;7.93;6.82;;;11.60;99.90;;;;;;5079806;28;20696;-74
2022/02/09 12:16:09;;;;;;;7.93;7.13;;;11.50;99.90;;;;;;5090509;28;20615;-74
2022/02/09 12:18:39;;;;;;;8.38;6.78;;;11.30;99.90;;;;;;5084541;28;20222;-74
2022/02/09 12:21:17;;;;;;;12.82;7.90;;;11.20;99.90;;;;;;5087723;28;20205;-74
2022/02/09 12:23:48;;;;;;;8.93;7.30;;;11.10;99.90;;;;;;5070086;28;20206;-74
2022/02/09 12:26:18;;;;;;;9.23;7.18;;;11.10;99.90;;;;;;5063815;28;20221;-74
2022/02/09 12:28:53;;;;;;;9.23;8.25;;;11.10;99.90;;;;;;5069039;28;20194;-73
2022/02/09 12:31:23;;;;;;;10.40;9.27;;;11.00;99.90;;;;;;5070853;28;20209;-74
2022/02/09 12:33:53;;;;;;;10.40;8.60;;;10.80;99.90;;;;;;5064507;28;20207;-72
2022/02/09 12:36:25;;;;;;;16.60;9.40;;;10.70;99.90;;;;;;5079045;28;20199;-74
2022/02/09 12:39:00;;;;;;;10.60;8.98;;;10.60;99.90;;;;;;5075012;28;20204;-73
2022/02/09 12:41:28;;;;;;;12.00;9.18;;;10.50;99.90;;;;;;5084456;28;20206;-74
2022/02/09 12:43:57;;;;;;;7.88;6.93;;;10.50;99.90;;;;;;5083748;28;20214;-74
2022/02/09 12:46:26;;;;;;;9.00;7.95;;;10.40;99.90;;;;;;5081679;28;20715;-73
2022/02/09 12:48:55;;;;;;;8.43;7.57;;;10.50;99.90;;;;;;5078263;28;20285;-73
2022/02/09 12:51:28;;;;;;;11.75;9.50;;;10.50;99.90;;;;;;5094832;28;20199;-73
2022/02/09 12:53:56;;;;;;;8.98;8.07;;;10.50;99.90;;;;;;5069357;28;20215;-74
2022/02/09 12:56:26;;;;;;;18.95;9.00;;;10.50;99.90;;;;;;5086103;28;20241;-75
2022/02/09 12:59:07;;;;;;;10.50;7.93;;;10.60;99.90;;;;;;5076785;28;20202;-74
2022/02/09 13:01:43;;;;;;;9.65;8.05;;;10.70;99.90;;;;;;5078977;28;20261;-74
2022/02/09 13:04:11;;;;;;;9.00;7.22;;;10.60;99.90;;;;;;5087511;28;20331;-74
2022/02/09 13:06:45;;;;;;;11.15;9.48;;;10.60;99.90;;;;;;5089466;28;20230;-73
2022/02/09 13:09:18;;;;;;;9.38;8.35;;;10.60;99.90;;;;;;5085736;28;20212;-73
2022/02/09 13:11:45;;;;;;;9.60;8.38;;;10.40;99.90;;;;;;5086997;28;20708;-73
2022/02/09 13:14:16;;;;;;;12.07;10.88;;;10.40;99.90;;;;;;5084920;28;20199;-74
2022/02/09 13:17:05;;;;;;;9.60;8.57;;;10.40;99.90;;;;;;5086117;28;20206;-75
2022/02/09 13:20:12;;;;;;;9.80;8.80;;;10.50;99.90;;;;;;5083023;28;20231;-74
2022/02/09 13:25:44;;;;;;;10.13;8.73;;;10.40;99.90;;;;;;5073621;28;20207;-74
2022/02/09 14:10:47;;;;;;;18.52;14.80;;;10.00;99.90;;;;;;5069689;28;20230;-76
2022/02/09 14:13:26;;;;;;;18.13;16.15;;;10.00;99.90;;;;;;5086589;28;20233;-75
2022/02/09 14:19:09;;;;;;;16.83;13.90;;;10.00;99.90;;;;;;5083972;28;20237;-75
2022/02/09 14:52:20;;;;;;;24.65;17.58;;;9.80;99.90;;;;;;5064951;28;20591;-73
2022/02/09 14:54:52;;;;;;;23.67;16.95;;;9.80;99.90;;;;;;5076567;28;20201;-74
2022/02/09 14:57:24;;;;;;;21.15;17.10;;;9.90;99.90;;;;;;5081508;28;20263;-74
2022/02/09 15:00:06;;;;;;;24.83;18.00;;;9.80;99.90;;;;;;5083334;28;20214;-73
2022/02/09 15:02:55;;;;;;;27.38;19.45;;;9.80;99.90;;;;;;5075507;28;20223;-75
2022/02/09 15:08:24;;;;;;;20.05;15.98;;;9.80;99.90;;;;;;5075428;28;20215;-72
2022/02/09 15:11:04;;;;;;;23.00;15.82;;;9.80;99.90;;;;;;5092875;28;20209;-73
2022/02/09 15:13:39;;;;;;;24.80;17.38;;;9.80;99.90;;;;;;5082987;28;20219;-74
2022/02/09 15:16:13;;;;;;;22.77;18.02;;;9.70;99.90;;;;;;5089062;28;20208;-74
2022/02/09 15:21:58;;;;;;;24.77;18.65;;;9.70;99.90;;;;;;5079402;28;20196;-74
2022/02/09 15:24:18;;;;;;;23.90;17.08;;;9.70;99.90;;;;;;5083190;28;20210;-73
2022/02/09 15:26:47;;;;;;;23.92;17.65;;;9.70;99.90;;;;;;5089971;28;20283;-73
2022/02/09 15:29:16;;;;;;;23.15;17.23;;;9.70;99.90;;;;;;5090832;28;20297;-73
2022/02/09 15:31:49;;;;;;;24.02;18.52;;;9.70;99.90;;;;;;5091801;28;20256;-73
2022/02/09 15:34:23;;;;;;;24.65;17.38;;;9.70;99.90;;;;;;5069561;28;20203;-74
2022/02/09 15:37:01;;;;;;;22.83;17.98;;;9.70;99.90;;;;;;5069082;28;20199;-72
2022/02/09 15:39:31;;;;;;;27.60;19.38;;;9.70;99.90;;;;;;5073834;28;20203;-74
2022/02/09 15:42:07;;;;;;;25.05;18.27;;;9.60;99.90;;;;;;5091023;28;20223;-73
2022/02/09 15:56:20;;;;;;;23.23;17.45;;;9.60;99.90;;;;;;5032096;28;20199;-74
2022/02/09 16:09:44;;;;;;;25.42;18.50;;;9.70;99.90;;;;;;5075160;28;20200;-78
2022/02/09 16:23:28;;;;;;;22.02;16.48;;;9.60;99.90;;;;;;5074913;28;20230;-76
2022/02/09 16:26:07;;;;;;;26.63;17.77;;;9.70;99.90;;;;;;5071974;28;20237;-76
2022/02/09 16:34:41;;;;;;;24.48;16.27;;;9.60;99.90;;;;;;5063900;28;20194;-76
2022/02/09 16:45:22;;;;;;;29.80;17.42;;;9.60;99.90;;;;;;5061281;28;20215;-74
2022/02/09 16:47:56;;;;;;;24.30;18.50;;;9.60;99.90;;;;;;5067497;28;20215;-76
2022/02/09 16:50:26;;;;;;;27.55;19.33;;;9.60;99.90;;;;;;5070436;28;20294;-76
2022/02/09 16:52:58;;;;;;;27.15;18.20;;;9.60;99.90;;;;;;5079035;28;20312;-75
2022/02/09 17:15:39;;;;;;;28.33;19.42;;;9.60;99.90;;;;;;5069081;28;20214;-77
2022/02/09 17:20:51;;;;;;;33.55;21.42;;;9.70;99.90;;;;;;5072233;28;20209;-74
2022/02/09 17:23:18;;;;;;;33.95;21.77;;;9.70;99.90;;;;;;5078290;28;20227;-74
2022/02/09 17:25:45;;;;;;;30.85;21.08;;;9.70;99.90;;;;;;5074459;28;20284;-75
2022/02/09 17:28:16;;;;;;;29.27;19.90;;;9.90;99.90;;;;;;5072718;28;20297;-75
2022/02/09 17:31:06;;;;;;;31.00;18.73;;;9.80;99.90;;;;;;5068937;28;20522;-73
2022/02/09 17:33:45;;;;;;;26.77;18.98;;;9.80;99.90;;;;;;5071750;28;20215;-75
2022/02/09 17:36:17;;;;;;;19.77;15.32;;;9.80;99.90;;;;;;5070950;28;20206;-75
2022/02/09 17:38:51;;;;;;;19.85;14.70;;;9.80;99.90;;;;;;5072245;28;20258;-75
2022/02/09 17:58:15;;;;;;;12.98;10.88;;;9.70;99.90;;;;;;5070569;28;20197;-74
2022/02/09 18:00:43;;;;;;;19.77;12.95;;;9.70;99.90;;;;;;5078880;28;20226;-75
2022/02/09 18:03:11;;;;;;;16.88;10.85;;;9.60;99.90;;;;;;5081586;28;20245;-74
2022/02/09 18:05:44;;;;;;;13.55;9.93;;;9.70;99.90;;;;;;5085433;28;20213;-75
2022/02/09 18:08:19;;;;;;;13.25;9.77;;;9.70;99.90;;;;;;5080659;28;20219;-75
2022/02/09 18:10:54;;;;;;;14.57;10.15;;;9.70;99.90;;;;;;5072818;28;20198;-75
2022/02/09 18:13:43;;;;;;;24.27;11.88;;;9.70;99.90;;;;;;5081604;28;20231;-74
2022/02/09 18:25:12;;;;;;;15.35;10.55;;;9.60;99.90;;;;;;5079128;28;20262;-74
2022/02/09 19:05:23;;;;;;;15.38;10.77;;;9.50;99.90;;;;;;5114773;28;20308;-78
2022/02/09 19:08:11;;;;;;;18.65;12.02;;;9.60;99.90;;;;;;5136111;27;20291;-80
2022/02/09 19:16:39;;;;;;;16.00;10.52;;;9.40;99.90;;;;;;5146975;27;20204;-81
2022/02/09 19:27:48;;;;;;;16.10;11.27;;;9.40;99.90;;;;;;5143591;27;20219;-79
2022/02/09 19:30:28;;;;;;;18.95;11.40;;;9.40;99.90;;;;;;5146949;27;20201;-80
2022/02/09 19:33:12;;;;;;;16.50;11.80;;;9.30;99.90;;;;;;5147219;27;20253;-79
2022/02/09 19:46:53;;;;;;;27.52;14.60;;;9.20;99.90;;;;;;5116800;27;20279;-79
2022/02/09 19:49:35;;;;;;;18.15;12.40;;;9.20;99.90;;;;;;5144282;27;20711;-80
2022/02/09 19:52:12;;;;;;;17.65;12.63;;;9.20;99.90;;;;;;5141504;27;20197;-82
2022/02/09 19:54:47;;;;;;;24.45;12.82;;;9.20;99.90;;;;;;5144934;27;20193;-82
2022/02/09 19:57:15;;;;;;;24.20;13.10;;;9.10;99.90;;;;;;5144509;27;20197;-84
2022/02/09 19:59:43;;;;;;;21.90;11.48;;;9.10;99.90;;;;;;5150712;27;20209;-84
2022/02/09 20:02:12;;;;;;;20.73;12.15;;;9.20;99.90;;;;;;5148968;27;20217;-81
2022/02/09 20:04:39;;;;;;;22.90;12.48;;;9.20;99.90;;;;;;5149565;27;20209;-82
2022/02/09 20:07:08;;;;;;;17.02;11.85;;;9.20;99.90;;;;;;5154937;27;20197;-80
2022/02/09 20:09:35;;;;;;;16.08;12.13;;;9.20;99.90;;;;;;5154103;27;20601;-81
2022/02/09 20:12:03;;;;;;;16.27;10.82;;;9.20;99.90;;;;;;5137610;27;20225;-81
2022/02/09 20:14:30;;;;;;;17.65;12.30;;;9.20;99.90;;;;;;5146866;27;20233;-83
2022/02/09 20:16:57;;;;;;;19.60;11.38;;;9.20;99.90;;;;;;5156651;27;20204;-84
2022/02/09 20:19:24;;;;;;;23.33;14.13;;;9.10;99.90;;;;;;5165325;27;20238;-80
2022/02/09 20:21:51;;;;;;;19.92;12.45;;;9.30;99.90;;;;;;5157957;27;20192;-83
2022/02/09 20:24:19;;;;;;;18.70;11.88;;;9.10;99.90;;;;;;5172882;27;20215;-81
2022/02/09 20:26:46;;;;;;;19.23;12.40;;;9.10;99.90;;;;;;5177466;27;20646;-82
2022/02/09 20:29:18;;;;;;;21.48;12.40;;;9.10;99.90;;;;;;5180172;27;20215;-80
2022/02/09 20:31:50;;;;;;;17.23;11.32;;;9.10;99.90;;;;;;5177499;27;20197;-82
2022/02/09 20:34:25;;;;;;;21.83;12.20;;;9.10;99.90;;;;;;5160144;27;20210;-80
2022/02/09 20:36:52;;;;;;;20.23;12.23;;;9.10;99.90;;;;;;5159774;27;20211;-79
2022/02/09 20:39:25;;;;;;;16.48;11.15;;;9.20;99.90;;;;;;5160264;27;20228;-80
2022/02/09 20:41:53;;;;;;;21.05;13.05;;;9.10;99.90;;;;;;5160238;27;20212;-81
2022/02/09 20:44:26;;;;;;;21.67;12.77;;;9.00;99.90;;;;;;5160397;27;20200;-84
2022/02/09 20:46:53;;;;;;;23.30;13.82;;;9.20;99.90;;;;;;5160148;27;20213;-81
2022/02/09 20:49:20;;;;;;;18.40;13.50;;;9.30;99.90;;;;;;5159148;27;20248;-81
2022/02/09 20:51:47;;;;;;;22.10;13.32;;;9.20;99.90;;;;;;5159130;27;20184;-85
2022/02/09 20:54:14;;;;;;;24.27;14.70;;;9.20;99.90;;;;;;5159985;27;20208;-85
2022/02/09 20:56:43;;;;;;;21.45;13.60;;;9.20;99.90;;;;;;5160182;27;20177;-84
2022/02/09 20:59:48;;;;;;;22.42;13.77;;;9.20;99.90;;;;;;5160311;27;20250;-86
2022/02/09 21:02:42;;;;;;;21.13;14.40;;;9.20;99.90;;;;;;5158214;27;20201;-80
2022/02/09 21:05:34;;;;;;;19.85;13.88;;;9.20;99.90;;;;;;5159970;27;20192;-79
2022/02/09 21:11:43;;;;;;;26.08;15.98;;;9.20;99.90;;;;;;5166183;22;20236;-77
2022/02/09 21:14:19;;;;;;;29.60;15.68;;;9.10;99.90;;;;;;5103589;28;20205;-74
2022/02/09 21:17:02;;;;;;;26.02;16.23;;;9.10;99.90;;;;;;5088777;28;20194;-76
2022/02/09 21:19:51;;;;;;;27.75;15.57;;;9.10;99.90;;;;;;5098412;28;20224;-79
2022/02/09 21:23:03;;;;;;;27.40;16.45;;;9.10;99.90;;;;;;5108260;28;20221;-77
2022/02/09 21:53:09;;;;;;;25.35;14.40;;;8.90;99.90;;;;;;5098548;28;20554;-77
2022/02/09 21:55:47;;;;;;;29.67;16.33;;;8.80;99.90;;;;;;5094575;28;20202;-75
2022/02/09 21:58:31;;;;;;;25.63;15.93;;;8.90;99.90;;;;;;5095567;28;20684;-76
2022/02/09 22:01:30;;;;;;;19.15;13.00;;;9.00;99.90;;;;;;5107734;28;20274;-76
2022/02/09 22:20:56;;;;;;;20.13;12.23;;;8.90;99.90;;;;;;5100307;28;20203;-78
2022/02/09 22:26:33;;;;;;;19.60;13.15;;;8.80;99.90;;;;;;5099873;28;20280;-75
2022/02/09 22:29:09;;;;;;;19.23;12.90;;;8.70;99.90;;;;;;5097470;28;20226;-75
2022/02/09 22:31:49;;;;;;;23.00;12.55;;;8.70;99.90;;;;;;5077980;28;20295;-72
2022/02/09 22:46:24;;;;;;;22.90;14.32;;;8.70;99.90;;;;;;5096482;28;20185;-73
2022/02/09 22:49:05;;;;;;;24.42;13.27;;;8.80;99.90;;;;;;5096292;28;20232;-74
2022/02/09 22:54:31;;;;;;;20.48;14.38;;;8.80;99.90;;;;;;5096607;28;20178;-74
2022/02/09 22:56:58;;;;;;;26.17;14.00;;;8.80;99.90;;;;;;5089075;28;20253;-74
2022/02/09 22:59:30;;;;;;;24.00;14.32;;;8.80;99.90;;;;;;5096086;28;20277;-73
2022/02/09 23:02:03;;;;;;;25.42;14.88;;;8.90;99.90;;;;;;5089793;28;20215;-73
2022/02/09 23:04:35;;;;;;;25.98;14.13;;;8.90;99.90;;;;;;5084632;28;20234;-74
2022/02/09 23:07:10;;;;;;;26.27;14.15;;;8.90;99.90;;;;;;5097222;28;20605;-73
2022/02/09 23:09:56;;;;;;;20.33;13.38;;;8.80;99.90;;;;;;5078414;28;20222;-73
2022/02/09 23:12:32;;;;;;;15.60;11.52;;;8.80;99.90;;;;;;5091813;28;20356;-72
2022/02/09 23:15:19;;;;;;;20.15;11.57;;;8.80;99.90;;;;;;5063731;28;20234;-73
